Time;durP1;ratioP1;P1;durP2;ratioP2;P2;SDS_P1;SDS_P2;PMS_P1;PMS_P2;Temp;Humidity;BMP_temperature;BMP_pressure;BME280_temperature;BME280_humidity;BME280_pressure;Samples;Min_cycle;Max_cycle;Signal;HPM_P1;HPM_P2
2020/12/28 00:01:56;;;;;;;0.73;0.40;;;;;;;;;;5067514;28;20060;-56
2020/12/28 00:04:22;;;;;;;;;;;;;;;;;;5065891;28;20052;-56
2020/12/28 00:07:04;;;;;;;0.50;0.30;;;;;;;;;;5067416;28;19904;-58
2020/12/28 00:09:39;;;;;;;0.40;0.20;;;;;;;;;;5048273;28;20116;-57
2020/12/28 00:12:46;;;;;;;0.73;0.30;;;;;;;;;;5065766;28;20029;-56
2020/12/28 00:15:45;;;;;;;1.10;0.60;;;;;;;;;;5066062;28;20029;-57
2020/12/28 00:21:52;;;;;;;1.10;0.60;;;;;;;;;;5044222;28;20037;-57
2020/12/28 00:24:33;;;;;;;1.07;0.50;;;;;;;;;;5051837;28;20065;-56
2020/12/28 00:27:06;;;;;;;1.07;0.57;;;;;;;;;;5067064;28;20060;-57
2020/12/28 00:32:46;;;;;;;0.80;0.40;;;;;;;;;;5065855;28;20040;-57
2020/12/28 00:38:21;;;;;;;0.37;0.20;;;;;;;;;;5065122;28;20083;-56
2020/12/28 00:41:03;;;;;;;1.00;0.50;;;;;;;;;;5066359;28;20032;-56
2020/12/28 00:44:17;;;;;;;1.37;0.40;;;;;;;;;;5065398;28;20024;-55
2020/12/28 00:47:11;;;;;;;0.97;0.40;;;;;;;;;;5044327;28;20533;-55
2020/12/28 00:49:58;;;;;;;1.87;1.13;;;;;;;;;;5044091;28;20652;-56
2020/12/28 00:52:52;;;;;;;0.60;0.27;;;;;;;;;;5043391;28;20423;-54
2020/12/28 00:55:26;;;;;;;0.90;0.40;;;;;;;;;;5059869;28;20044;-57
2020/12/28 00:58:04;;;;;;;2.80;0.43;;;;;;;;;;5066143;28;20381;-57
2020/12/28 01:01:05;;;;;;;0.50;0.30;;;;;;;;;;5066176;28;20051;-57
2020/12/28 01:04:10;;;;;;;;;;;;;;;;;;;;;
2020/12/28 01:07:30;;;;;;;0.97;0.53;;;;;;;;;;5061695;28;20057;-56
2020/12/28 01:12:53;;;;;;;0.93;0.23;;;;;;;;;;5042040;28;20033;-56
2020/12/28 01:18:33;;;;;;;0.90;0.43;;;;;;;;;;5066560;28;20493;-56
2020/12/28 01:24:42;;;;;;;;;;;;;;;;;;;;;
2020/12/28 01:27:29;;;;;;;1.30;0.60;;;;;;;;;;5062283;28;19905;-57
2020/12/28 01:30:09;;;;;;;;;;;;;;;;;;;;;
2020/12/28 01:32:47;;;;;;;1.17;0.55;;;;;;;;;;5013299;28;20109;-56
2020/12/28 01:35:17;;;;;;;1.03;0.43;;;;;;;;;;5065308;28;20386;-55
2020/12/28 01:38:02;;;;;;;0.50;0.40;;;;;;;;;;5065787;28;20134;-57
2020/12/28 01:40:38;;;;;;;1.33;0.60;;;;;;;;;;5066037;28;20037;-55
2020/12/28 01:43:34;;;;;;;0.90;0.33;;;;;;;;;;5064924;28;20055;-57
2020/12/28 01:49:16;;;;;;;2.93;0.57;;;;;;;;;;5035245;28;20439;-56
2020/12/28 01:51:48;;;;;;;2.53;0.40;;;;;;;;;;5066028;28;20025;-55
2020/12/28 01:54:48;;;;;;;0.43;0.30;;;;;;;;;;5065221;28;20032;-58
2020/12/28 02:00:40;;;;;;;0.80;0.30;;;;;;;;;;5041758;28;20413;-57
2020/12/28 02:06:21;;;;;;;0.77;0.40;;;;;;;;;;5004036;28;20040;-57
2020/12/28 02:09:08;;;;;;;0.60;0.30;;;;;;;;;;5003798;28;20108;-57
2020/12/28 02:11:41;;;;;;;0.87;0.40;;;;;;;;;;5014489;28;20030;-57
2020/12/28 02:14:28;;;;;;;0.77;0.40;;;;;;;;;;5036825;28;20041;-57
2020/12/28 02:17:09;;;;;;;0.80;0.47;;;;;;;;;;5065441;28;20040;-56
2020/12/28 02:19:51;;;;;;;1.70;0.57;;;;;;;;;;5069152;28;20094;-57
2020/12/28 02:25:25;;;;;;;;;;;;;;;;;;;;;
2020/12/28 02:28:30;;;;;;;1.60;0.50;;;;;;;;;;5063446;28;20080;-57
2020/12/28 02:31:36;;;;;;;0.77;0.30;;;;;;;;;;5060656;28;20053;-54
2020/12/28 02:34:19;;;;;;;0.47;0.27;;;;;;;;;;5058955;28;20049;-57
2020/12/28 02:37:33;;;;;;;0.53;0.30;;;;;;;;;;5068689;28;20124;-57
2020/12/28 02:43:06;;;;;;;0.43;0.20;;;;;;;;;;4975413;28;20031;-55
2020/12/28 02:45:57;;;;;;;0.50;0.30;;;;;;;;;;5046148;28;20108;-57
2020/12/28 02:48:38;;;;;;;3.57;0.50;;;;;;;;;;5061439;28;20055;-57
2020/12/28 02:51:32;;;;;;;0.60;0.23;;;;;;;;;;5069263;28;20021;-57
2020/12/28 02:54:22;;;;;;;0.60;0.23;;;;;;;;;;5067899;28;20070;-57
2020/12/28 02:57:35;;;;;;;0.67;0.30;;;;;;;;;;5046196;28;20101;-57
2020/12/28 03:03:14;;;;;;;0.60;0.30;;;;;;;;;;5034385;28;20037;-57
2020/12/28 03:05:59;;;;;;;0.63;0.30;;;;;;;;;;5046467;28;20025;-57
2020/12/28 03:08:52;;;;;;;0.73;0.30;;;;;;;;;;5046379;28;20041;-57
2020/12/28 03:11:27;;;;;;;0.20;0.13;;;;;;;;;;5037132;28;20029;-57
2020/12/28 03:14:06;;;;;;;0.13;0.10;;;;;;;;;;5035702;28;20045;-56
2020/12/28 03:16:51;;;;;;;2.00;0.60;;;;;;;;;;5068061;28;20029;-57
2020/12/28 03:26:12;;;;;;;0.67;0.33;;;;;;;;;;5055468;28;20045;-57
2020/12/28 03:34:56;;;;;;;0.30;0.30;;;;;;;;;;5067710;28;20045;-57
2020/12/28 03:37:26;;;;;;;0.40;0.20;;;;;;;;;;5066840;28;20017;-57
2020/12/28 03:40:16;;;;;;;0.40;0.20;;;;;;;;;;5068283;28;20021;-57
2020/12/28 03:43:08;;;;;;;0.63;0.37;;;;;;;;;;5037013;28;20101;-57
2020/12/28 03:45:58;;;;;;;0.70;0.27;;;;;;;;;;5067419;28;20055;-57
2020/12/28 03:48:41;;;;;;;0.32;0.13;;;;;;;;;;5067231;28;20037;-57
2020/12/28 03:52:05;;;;;;;;;;;;;;;;;;;;;
2020/12/28 03:54:25;;;;;;;0.70;0.30;;;;;;;;;;5054730;28;20045;-57
2020/12/28 03:57:20;;;;;;;0.43;0.20;;;;;;;;;;5005520;28;20073;-54
2020/12/28 04:00:22;;;;;;;1.43;0.80;;;;;;;;;;5067002;28;20025;-55
2020/12/28 04:03:25;;;;;;;;;;;;;;;;;;;;;
2020/12/28 04:06:26;;;;;;;3.00;0.47;;;;;;;;;;5064674;28;20770;-57
2020/12/28 04:09:03;;;;;;;0.43;0.27;;;;;;;;;;5067336;28;20033;-57
2020/12/28 04:15:06;;;;;;;;;;;;;;;;;;5009056;28;20038;-54
2020/12/28 04:17:38;;;;;;;;;;;;;;;;;;5025542;28;19913;-57
2020/12/28 04:23:25;;;;;;;1.05;0.55;;;;;;;;;;5003809;28;20038;-56
2020/12/28 04:25:58;;;;;;;1.13;0.60;;;;;;;;;;5018147;28;20041;-55
2020/12/28 04:31:22;;;;;;;0.57;0.28;;;;;;;;;;5060302;28;20505;-57
2020/12/28 04:36:55;;;;;;;0.47;0.20;;;;;;;;;;5029051;28;20059;-55
2020/12/28 04:42:55;;;;;;;0.47;0.30;;;;;;;;;;5048657;28;20075;-57
2020/12/28 04:45:28;;;;;;;1.53;0.43;;;;;;;;;;5069216;28;20093;-57
2020/12/28 04:48:10;;;;;;;0.63;0.43;;;;;;;;;;5067853;28;20581;-57
2020/12/28 04:50:57;;;;;;;0.67;0.20;;;;;;;;;;5070596;28;20032;-57
2020/12/28 04:53:33;;;;;;;1.00;0.40;;;;;;;;;;5051562;28;20358;-55
2020/12/28 04:56:34;;;;;;;;;;;;;;;;;;;;;
2020/12/28 04:59:05;;;;;;;;;;;;;;;;;;;;;
2020/12/28 05:01:44;;;;;;;0.90;0.37;;;;;;;;;;5019094;28;20399;-56
2020/12/28 05:04:41;;;;;;;1.00;0.20;;;;;;;;;;5029951;28;20083;-54
2020/12/28 05:07:21;;;;;;;1.73;0.60;;;;;;;;;;5029765;28;20479;-57
2020/12/28 05:10:05;;;;;;;0.83;0.47;;;;;;;;;;5052971;28;20075;-56
2020/12/28 05:12:47;;;;;;;1.03;0.50;;;;;;;;;;5052208;28;20359;-57
2020/12/28 05:18:38;;;;;;;1.93;0.70;;;;;;;;;;5052694;28;20043;-57
2020/12/28 05:21:27;;;;;;;1.53;0.73;;;;;;;;;;5050891;28;20572;-55
2020/12/28 05:24:12;;;;;;;0.30;0.17;;;;;;;;;;5052293;28;20029;-57
2020/12/28 05:26:42;;;;;;;1.03;0.57;;;;;;;;;;5052709;28;20048;-56
2020/12/28 05:29:38;;;;;;;;;;;;;;;;;;;;;
2020/12/28 05:32:40;;;;;;;0.47;0.20;;;;;;;;;;5052363;28;20033;-57
2020/12/28 05:38:14;;;;;;;0.80;0.40;;;;;;;;;;5044558;28;20164;-56
2020/12/28 05:40:46;;;;;;;1.20;0.70;;;;;;;;;;5050269;28;20103;-56
2020/12/28 05:43:40;;;;;;;2.23;0.83;;;;;;;;;;5051789;28;20041;-57
2020/12/28 05:49:38;;;;;;;1.17;0.43;;;;;;;;;;4997609;28;20094;-54
2020/12/28 05:52:08;;;;;;;3.90;1.17;;;;;;;;;;5025657;28;20120;-56
2020/12/28 05:55:23;;;;;;;1.83;0.53;;;;;;;;;;5055760;28;20067;-55
2020/12/28 05:58:31;;;;;;;;;;;;;;;;;;;;;
2020/12/28 06:01:09;;;;;;;0.87;0.40;;;;;;;;;;4991702;28;20034;-57
2020/12/28 06:03:51;;;;;;;2.20;0.50;;;;;;;;;;5031699;28;20128;-56
2020/12/28 06:06:38;;;;;;;1.50;0.60;;;;;;;;;;5106131;28;20473;-55
2020/12/28 06:12:21;;;;;;;2.83;0.40;;;;;;;;;;5044515;28;20218;-56
2020/12/28 06:15:12;;;;;;;1.07;0.50;;;;;;;;;;5059927;28;20121;-56
2020/12/28 06:17:50;;;;;;;1.03;0.50;;;;;;;;;;5035813;28;20065;-55
2020/12/28 06:20:40;;;;;;;3.27;0.80;;;;;;;;;;5073793;28;20074;-55
2020/12/28 06:23:58;;;;;;;0.93;0.50;;;;;;;;;;5058223;28;20025;-56
2020/12/28 06:26:54;;;;;;;1.37;0.63;;;;;;;;;;5055505;28;20085;-56
2020/12/28 06:29:46;;;;;;;1.63;0.50;;;;;;;;;;5054003;28;20033;-56
2020/12/28 06:32:36;;;;;;;0.87;0.57;;;;;;;;;;5064033;28;20349;-57
2020/12/28 06:35:21;;;;;;;1.00;0.43;;;;;;;;;;5073502;28;20048;-56
2020/12/28 06:40:59;;;;;;;0.83;0.47;;;;;;;;;;5075779;28;20493;-57
2020/12/28 06:43:54;;;;;;;;;;;;;;;;;;;;;
2020/12/28 06:47:00;;;;;;;;;;;;;;;;;;;;;
2020/12/28 06:49:26;;;;;;;1.03;0.53;;;;;;;;;;5057448;28;20352;-56
2020/12/28 06:52:12;;;;;;;5.80;1.80;;;;;;;;;;5074812;28;20390;-54
2020/12/28 06:54:54;;;;;;;1.37;0.50;;;;;;;;;;5075579;28;20029;-56
2020/12/28 06:57:34;;;;;;;1.73;0.63;;;;;;;;;;5071481;28;20612;-57
2020/12/28 07:00:45;;;;;;;1.10;0.50;;;;;;;;;;5066903;28;20452;-57
2020/12/28 07:03:23;;;;;;;2.15;0.60;;;;;;;;;;5053175;28;20506;-58
2020/12/28 07:06:24;;;;;;;;;;;;;;;;;;;;;
2020/12/28 07:14:57;;;;;;;1.37;0.70;;;;;;;;;;4992666;28;20034;-58
2020/12/28 07:17:32;;;;;;;1.37;0.50;;;;;;;;;;5054400;28;20090;-57
2020/12/28 07:23:40;;;;;;;0.83;0.33;;;;;;;;;;5068441;28;20090;-57
2020/12/28 07:26:28;;;;;;;1.33;0.83;;;;;;;;;;5015153;28;20038;-58
2020/12/28 07:29:10;;;;;;;2.00;0.77;;;;;;;;;;5050892;28;20517;-57
2020/12/28 07:35:13;;;;;;;1.37;0.57;;;;;;;;;;4996826;28;20038;-56
2020/12/28 07:37:59;;;;;;;1.30;0.67;;;;;;;;;;5036493;28;20049;-58
2020/12/28 07:41:06;;;;;;;1.03;0.60;;;;;;;;;;5061249;28;20067;-56
2020/12/28 07:44:13;;;;;;;0.90;0.30;;;;;;;;;;5080843;28;20033;-58
2020/12/28 07:46:58;;;;;;;1.33;0.47;;;;;;;;;;5022733;28;20523;-58
2020/12/28 07:49:38;;;;;;;1.10;0.60;;;;;;;;;;5049368;28;20386;-56
2020/12/28 07:52:52;;;;;;;;;;;;;;;;;;;;;
2020/12/28 07:58:48;;;;;;;4.67;1.10;;;;;;;;;;5034302;28;20021;-57
2020/12/28 08:02:05;;;;;;;1.50;0.57;;;;;;;;;;5026598;28;20092;-58
2020/12/28 08:05:05;;;;;;;1.20;0.70;;;;;;;;;;5026637;28;20041;-57
2020/12/28 08:07:53;;;;;;;3.17;0.90;;;;;;;;;;5033994;28;20115;-56
2020/12/28 08:17:10;;;;;;;1.45;0.68;;;;;;;;;;5006365;28;20088;-55
2020/12/28 08:19:56;;;;;;;0.57;0.30;;;;;;;;;;4945840;28;20085;-55
2020/12/28 08:22:40;;;;;;;0.83;0.40;;;;;;;;;;4981460;28;20125;-58
2020/12/28 08:25:13;;;;;;;1.23;0.40;;;;;;;;;;5037952;28;20503;-57
2020/12/28 08:30:51;;;;;;;0.33;0.20;;;;;;;;;;5045173;28;20038;-58
2020/12/28 08:33:41;;;;;;;0.27;0.17;;;;;;;;;;5041847;28;20116;-57
2020/12/28 08:36:26;;;;;;;2.67;0.50;;;;;;;;;;5050902;28;20041;-56
2020/12/28 08:38:57;;;;;;;0.77;0.40;;;;;;;;;;5052600;28;20037;-56
2020/12/28 08:41:29;;;;;;;;;;;;;;;;;;5053607;28;20029;-56
2020/12/28 08:44:40;;;;;;;0.73;0.30;;;;;;;;;;5050947;28;20008;-56
2020/12/28 08:47:03;;;;;;;0.53;0.33;;;;;;;;;;5046095;28;20090;-57
2020/12/28 08:53:25;;;;;;;0.60;0.43;;;;;;;;;;5042611;28;20028;-56
2020/12/28 08:56:17;;;;;;;1.07;0.53;;;;;;;;;;5039376;28;20525;-56
2020/12/28 09:02:49;;;;;;;1.23;0.70;;;;;;;;;;5005039;28;20080;-57
2020/12/28 09:17:37;;;;;;;4.77;0.80;;;;;;;;;;4974085;28;20259;-57
2020/12/28 09:20:15;;;;;;;2.53;1.30;;;;;;;;;;4990538;28;20045;-56
2020/12/28 09:22:54;;;;;;;1.57;0.83;;;;;;;;;;4990000;28;20038;-56
2020/12/28 09:28:55;;;;;;;1.88;0.73;;;;;;;;;;4903150;29;20075;-55
2020/12/28 09:34:58;;;;;;;;;;;;;;;;;;;;;
2020/12/28 09:37:37;;;;;;;1.60;0.90;;;;;;;;;;5026561;28;20398;-56
2020/12/28 09:40:09;;;;;;;1.77;0.83;;;;;;;;;;5072585;28;20119;-56
2020/12/28 09:42:48;;;;;;;1.53;0.70;;;;;;;;;;5067096;28;20028;-57
2020/12/28 09:45:42;;;;;;;1.07;0.67;;;;;;;;;;5059611;28;20037;-58
2020/12/28 09:48:20;;;;;;;3.33;1.13;;;;;;;;;;5060370;28;20439;-58
2020/12/28 09:53:52;;;;;;;3.93;1.40;;;;;;;;;;5058230;28;20538;-58
2020/12/28 10:03:01;;;;;;;1.90;1.13;;;;;;;;;;5057597;28;20040;-57
2020/12/28 10:05:49;;;;;;;2.17;1.30;;;;;;;;;;5056362;28;20024;-58
2020/12/28 10:08:33;;;;;;;2.20;1.07;;;;;;;;;;5059280;28;20420;-58
2020/12/28 10:11:41;;;;;;;2.33;1.20;;;;;;;;;;5070478;28;20044;-58
2020/12/28 10:30:30;;;;;;;2.47;1.63;;;;;;;;;;5047327;28;20037;-58
2020/12/28 10:33:20;;;;;;;3.87;1.93;;;;;;;;;;5039325;28;20020;-58
2020/12/28 10:35:58;;;;;;;3.10;2.15;;;;;;;;;;5075368;28;20464;-56
2020/12/28 10:38:54;;;;;;;4.03;2.53;;;;;;;;;;5065846;28;20028;-59
2020/12/28 10:47:32;;;;;;;3.33;2.43;;;;;;;;;;5061086;28;20033;-58
2020/12/28 10:50:13;;;;;;;3.10;2.27;;;;;;;;;;5075335;28;20040;-58
2020/12/28 10:52:50;;;;;;;2.65;2.00;;;;;;;;;;5070921;28;20432;-59
2020/12/28 10:55:36;;;;;;;6.13;2.90;;;;;;;;;;5069348;28;20045;-58
2020/12/28 11:01:34;;;;;;;6.10;2.93;;;;;;;;;;5005139;28;20213;-58
2020/12/28 11:04:11;;;;;;;3.93;3.03;;;;;;;;;;5046471;28;20033;-58
2020/12/28 11:07:29;;;;;;;3.63;2.00;;;;;;;;;;5073916;28;20109;-57
2020/12/28 11:10:27;;;;;;;3.03;2.17;;;;;;;;;;5053552;28;20115;-58
2020/12/28 11:16:37;;;;;;;3.17;2.83;;;;;;;;;;5055582;28;20033;-58
2020/12/28 11:22:27;;;;;;;3.63;2.83;;;;;;;;;;5064231;28;20028;-59
2020/12/28 11:28:09;;;;;;;4.20;3.07;;;;;;;;;;5025086;28;20092;-56
2020/12/28 11:30:40;;;;;;;4.00;2.53;;;;;;;;;;5066966;28;20031;-56
2020/12/28 11:33:31;;;;;;;3.73;2.17;;;;;;;;;;5072576;28;20028;-57
2020/12/28 11:36:48;;;;;;;3.75;2.50;;;;;;;;;;5056746;28;20538;-57
2020/12/28 11:39:45;;;;;;;4.83;2.07;;;;;;;;;;5051973;28;20029;-56
2020/12/28 11:42:23;;;;;;;2.50;2.20;;;;;;;;;;5030626;28;20119;-55
2020/12/28 11:48:28;;;;;;;3.90;2.43;;;;;;;;;;5041333;28;20039;-57
2020/12/28 11:51:00;;;;;;;4.85;3.00;;;;;;;;;;5067379;28;20104;-58
2020/12/28 11:56:24;;;;;;;5.80;3.17;;;;;;;;;;5046249;28;20042;-57
2020/12/28 11:59:08;;;;;;;4.37;2.73;;;;;;;;;;5053825;28;20033;-58
2020/12/28 12:01:58;;;;;;;8.55;3.20;;;;;;;;;;5053850;28;20085;-57
2020/12/28 12:04:52;;;;;;;3.37;2.57;;;;;;;;;;5053152;28;20056;-57
2020/12/28 12:10:34;;;;;;;2.97;2.23;;;;;;;;;;5053103;28;20494;-58
2020/12/28 12:13:00;;;;;;;4.10;2.97;;;;;;;;;;5046608;28;20070;-57
2020/12/28 12:18:58;;;;;;;3.13;2.33;;;;;;;;;;5059182;28;20045;-58
2020/12/28 12:21:49;;;;;;;3.83;2.90;;;;;;;;;;5053690;28;20082;-55
2020/12/28 12:24:34;;;;;;;3.35;1.88;;;;;;;;;;5055526;28;20483;-57
2020/12/28 12:33:32;;;;;;;2.53;1.63;;;;;;;;;;5069064;28;20116;-57
2020/12/28 12:36:17;;;;;;;3.17;2.00;;;;;;;;;;5048584;28;20042;-56
2020/12/28 12:39:03;;;;;;;3.17;2.40;;;;;;;;;;5065942;28;20033;-57
2020/12/28 12:41:50;;;;;;;3.30;2.33;;;;;;;;;;5063292;28;20476;-57
2020/12/28 12:47:27;;;;;;;3.17;2.07;;;;;;;;;;5057833;28;20036;-57
2020/12/28 12:50:53;;;;;;;3.00;2.23;;;;;;;;;;5071512;28;20531;-56
2020/12/28 12:53:22;;;;;;;2.00;1.27;;;;;;;;;;5002887;28;20030;-56
2020/12/28 12:59:00;;;;;;;2.25;1.20;;;;;;;;;;4970780;28;20400;-57
2020/12/28 13:01:55;;;;;;;2.03;1.20;;;;;;;;;;4973768;28;20121;-57
2020/12/28 13:04:56;;;;;;;2.50;1.27;;;;;;;;;;5059994;28;20067;-57
2020/12/28 13:07:59;;;;;;;5.10;1.07;;;;;;;;;;5053821;28;20051;-56
2020/12/28 13:16:53;;;;;;;1.90;0.77;;;;;;;;;;5005995;28;20605;-57
2020/12/28 13:19:47;;;;;;;2.30;0.90;;;;;;;;;;5045140;28;20021;-57
2020/12/28 13:22:24;;;;;;;4.73;1.27;;;;;;;;;;5034542;28;20506;-56
2020/12/28 13:28:20;;;;;;;;;;;;;;;;;;;;;
2020/12/28 13:31:40;;;;;;;;;;;;;;;;;;;;;
2020/12/28 13:34:25;;;;;;;1.47;0.80;;;;;;;;;;5045340;28;20467;-57
2020/12/28 13:37:14;;;;;;;2.30;0.77;;;;;;;;;;5052337;28;20078;-57
2020/12/28 13:40:01;;;;;;;3.10;0.60;;;;;;;;;;5032635;28;20052;-57
2020/12/28 13:51:40;;;;;;;1.20;0.70;;;;;;;;;;5042304;28;20394;-58
2020/12/28 13:54:34;;;;;;;0.23;0.13;;;;;;;;;;5059480;28;20029;-56
2020/12/28 14:00:01;;;;;;;2.93;0.73;;;;;;;;;;5031038;28;20084;-57
2020/12/28 14:05:35;;;;;;;1.10;0.63;;;;;;;;;;5070148;28;20052;-56
2020/12/28 14:08:30;;;;;;;0.93;0.60;;;;;;;;;;5070945;28;20473;-57
2020/12/28 14:11:16;;;;;;;2.23;0.60;;;;;;;;;;5058126;28;20037;-56
2020/12/28 14:14:12;;;;;;;0.97;0.67;;;;;;;;;;5044730;28;20028;-57
2020/12/28 14:17:13;;;;;;;0.83;0.43;;;;;;;;;;5053331;28;20032;-56
2020/12/28 14:20:19;;;;;;;1.83;1.23;;;;;;;;;;5050955;28;20032;-56
2020/12/28 14:22:47;;;;;;;1.60;0.73;;;;;;;;;;5041660;28;20029;-57
2020/12/28 14:25:54;;;;;;;;;;;;;;;;;;;;;
2020/12/28 14:28:39;;;;;;;1.10;0.60;;;;;;;;;;5026044;28;20032;-57
2020/12/28 14:31:29;;;;;;;1.10;0.70;;;;;;;;;;5053191;28;20487;-57
2020/12/28 14:37:10;;;;;;;0.97;0.30;;;;;;;;;;5012506;28;20040;-56
2020/12/28 14:39:42;;;;;;;9.13;1.47;;;;;;;;;;5034370;28;20052;-55
2020/12/28 14:45:57;;;;;;;;;;;;;;;;;;;;;
2020/12/28 14:48:40;;;;;;;;;;;;;;;;;;;;;
2020/12/28 14:51:40;;;;;;;1.23;0.70;;;;;;;;;;5039981;28;20096;-57
2020/12/28 14:54:41;;;;;;;1.75;0.95;;;;;;;;;;5054891;28;20033;-56
2020/12/28 14:57:16;;;;;;;2.00;1.03;;;;;;;;;;5055526;28;20352;-56
2020/12/28 15:03:01;;;;;;;1.27;0.67;;;;;;;;;;5017964;28;20112;-56
2020/12/28 15:06:22;;;;;;;1.00;0.47;;;;;;;;;;5035648;28;20029;-56
2020/12/28 15:08:51;;;;;;;1.23;0.77;;;;;;;;;;5034623;28;20030;-57
2020/12/28 15:11:43;;;;;;;1.03;0.60;;;;;;;;;;5042878;28;20013;-57
2020/12/28 15:14:12;;;;;;;1.20;0.53;;;;;;;;;;5053819;28;20043;-55
2020/12/28 15:26:28;;;;;;;1.90;0.83;;;;;;;;;;5037476;28;20037;-56
2020/12/28 15:35:32;;;;;;;1.67;0.60;;;;;;;;;;5022784;28;20033;-55
2020/12/28 15:38:07;;;;;;;0.63;0.43;;;;;;;;;;5054963;28;20272;-56
2020/12/28 15:41:02;;;;;;;1.17;0.63;;;;;;;;;;5069860;28;20394;-55
2020/12/28 16:05:01;;;;;;;;;;;;;;;;;;;;;
2020/12/28 16:10:40;;;;;;;1.80;0.70;;;;;;;;;;5003808;28;20038;-57
2020/12/28 16:13:59;;;;;;;2.10;1.03;;;;;;;;;;5023544;28;20037;-57
2020/12/28 16:20:07;;;;;;;1.30;0.77;;;;;;;;;;5073944;28;20032;-57
2020/12/28 16:22:55;;;;;;;0.87;0.50;;;;;;;;;;5058349;28;20417;-57
2020/12/28 16:31:22;;;;;;;2.22;0.68;;;;;;;;;;5003107;28;20031;-57
2020/12/28 16:40:37;;;;;;;2.27;0.90;;;;;;;;;;4980654;28;20039;-56
2020/12/28 16:43:12;;;;;;;1.13;0.43;;;;;;;;;;4988960;28;20045;-55
2020/12/28 16:51:41;;;;;;;4.43;1.43;;;;;;;;;;5028421;28;20114;-55
2020/12/28 16:54:28;;;;;;;;;;;;;;;;;;;;;
2020/12/28 16:57:04;;;;;;;3.70;1.57;;;;;;;;;;5029040;28;21230;-56
2020/12/28 17:00:19;;;;;;;1.87;1.00;;;;;;;;;;5056012;28;20795;-57
2020/12/28 17:03:04;;;;;;;2.13;1.27;;;;;;;;;;4969072;28;20454;-59
2020/12/28 17:08:58;;;;;;;2.77;1.33;;;;;;;;;;5031242;28;20082;-59
2020/12/28 17:11:44;;;;;;;2.07;1.23;;;;;;;;;;5054393;28;20436;-57
2020/12/28 17:20:00;;;;;;;1.60;0.90;;;;;;;;;;5030322;28;20176;-56
2020/12/28 17:25:50;;;;;;;3.10;1.47;;;;;;;;;;5028646;28;20064;-57
2020/12/28 17:28:19;;;;;;;1.77;0.80;;;;;;;;;;5033230;28;20047;-55
2020/12/28 17:31:07;;;;;;;4.53;0.87;;;;;;;;;;5049910;28;20463;-57
2020/12/28 17:33:47;;;;;;;;;;;;;;;;;;;;;
2020/12/28 17:36:45;;;;;;;1.98;1.20;;;;;;;;;;5033283;28;20494;-56
2020/12/28 17:45:25;;;;;;;4.23;2.43;;;;;;;;;;5055958;28;20028;-54
2020/12/28 17:48:19;;;;;;;2.47;1.57;;;;;;;;;;4993679;28;20426;-56
2020/12/28 17:51:06;;;;;;;2.30;0.60;;;;;;;;;;5035025;28;20442;-55
2020/12/28 17:56:58;;;;;;;3.77;1.50;;;;;;;;;;5036236;28;20086;-55
2020/12/28 17:59:39;;;;;;;1.80;1.20;;;;;;;;;;5036929;28;20022;-57
2020/12/28 18:08:06;;;;;;;4.75;1.75;;;;;;;;;;5039890;28;20499;-55
2020/12/28 18:14:12;;;;;;;3.10;1.60;;;;;;;;;;5041143;28;20040;-57
2020/12/28 18:20:06;;;;;;;1.35;0.68;;;;;;;;;;5029980;28;20044;-57
2020/12/28 18:22:51;;;;;;;1.70;1.17;;;;;;;;;;5035068;28;20036;-56
2020/12/28 18:28:25;;;;;;;1.60;0.83;;;;;;;;;;5036069;28;20513;-56
2020/12/28 18:31:26;;;;;;;3.97;1.70;;;;;;;;;;5036019;28;20380;-57
2020/12/28 18:34:10;;;;;;;3.17;1.37;;;;;;;;;;5033186;28;20099;-57
2020/12/28 18:37:18;;;;;;;1.87;1.13;;;;;;;;;;5036344;28;20049;-57
2020/12/28 18:40:07;;;;;;;2.90;1.97;;;;;;;;;;4983692;28;20530;-56
2020/12/28 18:45:48;;;;;;;2.00;1.13;;;;;;;;;;5035910;28;20107;-54
2020/12/28 18:54:28;;;;;;;;;;;;;;;;;;;;;
2020/12/28 18:57:17;;;;;;;5.83;4.10;;;;;;;;;;5035499;28;20469;-57
2020/12/28 19:03:00;;;;;;;8.77;4.87;;;;;;;;;;5050293;28;20033;-57
2020/12/28 19:05:41;;;;;;;5.50;3.80;;;;;;;;;;5068786;28;20503;-57
2020/12/28 19:08:13;;;;;;;4.57;2.57;;;;;;;;;;5045432;28;20043;-56
2020/12/28 19:11:11;;;;;;;;;;;;;;;;;;;;;
2020/12/28 19:13:55;;;;;;;7.43;1.70;;;;;;;;;;5047096;28;20041;-57
2020/12/28 19:19:53;;;;;;;3.53;2.37;;;;;;;;;;5044381;28;20057;-57
2020/12/28 19:25:27;;;;;;;5.30;2.80;;;;;;;;;;5050516;28;20111;-57
2020/12/28 19:28:04;;;;;;;3.42;2.45;;;;;;;;;;5033947;28;20508;-54
2020/12/28 19:36:41;;;;;;;5.67;3.30;;;;;;;;;;5059437;28;20117;-57
2020/12/28 19:39:16;;;;;;;;;;;;;;;;;;5060020;28;20029;-57
2020/12/28 19:44:59;;;;;;;4.00;2.87;;;;;;;;;;5051501;28;20063;-57
2020/12/28 19:50:56;;;;;;;;;;;;;;;;;;;;;
2020/12/28 20:03:01;;;;;;;4.27;3.63;;;;;;;;;;5043896;28;20064;-56
2020/12/28 20:05:44;;;;;;;5.27;4.03;;;;;;;;;;5044570;28;20056;-57
2020/12/28 20:08:26;;;;;;;4.30;3.13;;;;;;;;;;5053475;28;20052;-57
2020/12/28 20:11:36;;;;;;;4.67;4.17;;;;;;;;;;5043189;28;20030;-57
2020/12/28 20:14:19;;;;;;;4.60;3.70;;;;;;;;;;5008712;28;20081;-56
2020/12/28 20:17:16;;;;;;;5.87;4.33;;;;;;;;;;5066857;28;20066;-55
2020/12/28 20:23:07;;;;;;;;;;;;;;;;;;;;;
2020/12/28 20:25:56;;;;;;;4.00;3.07;;;;;;;;;;5086944;28;20063;-57
2020/12/28 20:31:36;;;;;;;4.23;3.83;;;;;;;;;;5011258;28;20103;-57
2020/12/28 20:34:41;;;;;;;6.17;3.53;;;;;;;;;;5073391;28;20443;-56
2020/12/28 20:37:22;;;;;;;4.33;2.90;;;;;;;;;;5027426;28;20068;-56
2020/12/28 20:40:07;;;;;;;6.43;4.33;;;;;;;;;;5053633;28;20029;-55
2020/12/28 20:43:06;;;;;;;4.00;3.00;;;;;;;;;;5052608;28;20032;-55
2020/12/28 20:45:39;;;;;;;5.53;3.60;;;;;;;;;;4972984;28;20125;-58
2020/12/28 20:51:47;;;;;;;6.07;3.77;;;;;;;;;;5005739;28;20033;-57
2020/12/28 20:54:33;;;;;;;10.37;4.63;;;;;;;;;;5050629;28;20451;-56
2020/12/28 20:57:34;;;;;;;10.60;5.03;;;;;;;;;;5039402;28;20043;-57
2020/12/28 21:00:30;;;;;;;7.50;5.23;;;;;;;;;;5027669;28;20040;-55
2020/12/28 21:03:26;;;;;;;6.17;4.57;;;;;;;;;;5010005;28;20483;-56
2020/12/28 21:06:11;;;;;;;7.33;4.47;;;;;;;;;;5053113;28;20033;-55
2020/12/28 21:09:08;;;;;;;5.57;4.33;;;;;;;;;;5053042;28;20094;-57
2020/12/28 21:15:21;;;;;;;;;;;;;;;;;;;;;
2020/12/28 21:21:11;;;;;;;5.03;3.43;;;;;;;;;;5044142;28;20037;-57
2020/12/28 21:24:24;;;;;;;4.07;3.10;;;;;;;;;;5052180;28;20037;-57
2020/12/28 21:27:10;;;;;;;6.40;4.03;;;;;;;;;;5053679;28;20037;-55
2020/12/28 21:29:43;;;;;;;3.90;2.73;;;;;;;;;;5077494;28;20028;-57
2020/12/28 21:32:34;;;;;;;5.70;4.03;;;;;;;;;;5076881;28;20095;-55
2020/12/28 21:38:03;;;;;;;5.40;3.27;;;;;;;;;;5077269;28;20089;-57
2020/12/28 21:40:53;;;;;;;5.13;2.60;;;;;;;;;;5075432;28;20040;-56
2020/12/28 21:47:09;;;;;;;2.67;2.00;;;;;;;;;;5048382;28;20396;-58
2020/12/28 21:50:00;;;;;;;2.57;1.87;;;;;;;;;;5040695;28;20091;-58
2020/12/28 21:58:42;;;;;;;3.13;2.07;;;;;;;;;;5076830;28;20090;-55
2020/12/28 22:01:18;;;;;;;4.15;2.60;;;;;;;;;;5080018;28;20040;-57
2020/12/28 22:03:45;;;;;;;6.20;2.50;;;;;;;;;;5087839;28;20021;-58
2020/12/28 22:06:34;;;;;;;4.47;2.50;;;;;;;;;;5089119;28;20092;-58
2020/12/28 22:09:20;;;;;;;5.73;3.20;;;;;;;;;;5089587;28;20025;-58
2020/12/28 22:12:17;;;;;;;4.67;2.30;;;;;;;;;;5076334;28;20041;-58
2020/12/28 22:15:04;;;;;;;3.93;2.47;;;;;;;;;;5069470;28;20060;-57
2020/12/28 22:17:50;;;;;;;5.10;2.77;;;;;;;;;;5069104;28;20033;-58
2020/12/28 22:20:30;;;;;;;3.30;2.70;;;;;;;;;;5069316;28;20099;-56
2020/12/28 22:26:31;;;;;;;4.90;3.47;;;;;;;;;;5065922;28;20033;-57
2020/12/28 22:29:17;;;;;;;4.23;2.60;;;;;;;;;;5065962;28;20092;-58
2020/12/28 22:32:32;;;;;;;;;;;;;;;;;;;;;
2020/12/28 22:35:04;;;;;;;3.77;3.03;;;;;;;;;;5053262;28;20061;-58
2020/12/28 22:37:44;;;;;;;;;;;;;;;;;;;;;
2020/12/28 22:43:43;;;;;;;5.13;2.73;;;;;;;;;;5068010;28;20066;-59
2020/12/28 22:46:30;;;;;;;3.50;2.50;;;;;;;;;;5068052;28;20029;-58
2020/12/28 22:55:19;;;;;;;4.53;2.80;;;;;;;;;;5068583;28;20072;-59
2020/12/28 22:57:57;;;;;;;4.43;3.13;;;;;;;;;;5069047;28;20025;-58
2020/12/28 23:03:45;;;;;;;4.40;3.33;;;;;;;;;;5005839;28;20058;-58
2020/12/28 23:09:42;;;;;;;4.72;2.55;;;;;;;;;;5006811;28;20050;-58
2020/12/28 23:12:31;;;;;;;6.23;3.20;;;;;;;;;;5022226;28;20029;-58
2020/12/28 23:15:07;;;;;;;3.63;2.40;;;;;;;;;;5021445;28;20057;-56
2020/12/28 23:18:08;;;;;;;4.87;3.20;;;;;;;;;;5025900;28;20042;-59
2020/12/28 23:20:53;;;;;;;3.42;2.95;;;;;;;;;;5024614;28;20384;-56
2020/12/28 23:23:20;;;;;;;3.53;2.37;;;;;;;;;;5067310;28;20029;-56
2020/12/28 23:26:00;;;;;;;2.87;2.07;;;;;;;;;;5068102;28;20025;-58
2020/12/28 23:28:48;;;;;;;4.83;3.13;;;;;;;;;;5068288;28;20031;-58
2020/12/28 23:31:38;;;;;;;3.00;2.70;;;;;;;;;;5068099;28;20093;-59
2020/12/28 23:34:34;;;;;;;2.75;2.22;;;;;;;;;;5067125;28;20028;-56
2020/12/28 23:37:07;;;;;;;2.80;2.20;;;;;;;;;;5068097;28;20033;-58
2020/12/28 23:54:33;;;;;;;2.37;1.43;;;;;;;;;;5025717;28;20042;-58
